Terminal Aerodrome Forecast
Issued by NWS

Home | Current Version | Previous Version | Text Only | Print | Product List | Glossary On
Versions: 1 2 3 4 5 6 7 8 9 10 11 12 13 14 15
000
FTUS43 KIND 310500
TAFLAF
TAF
KLAF 310527Z 3106/0106 19003KT P6SM FEW250
     FM311400 21010KT P6SM BKN250
     FM312100 22010KT P6SM OVC080
     FM010100 21008KT 4SM -SN SCT025 OVC050
      TEMPO 0101/0105 1SM -SN BKN015 OVC040
      AMD LTD TO CLD VIS AND WIND TIL 311400=

USA.gov is the U.S. government's official web portal to all federal, state and local government web resources and services.